createdAt,value
2023-02-26T00:02:46.016Z,3.80
2023-02-26T00:05:48.746Z,4.43
2023-02-26T00:08:52.094Z,3.73
2023-02-26T00:11:55.546Z,3.93
2023-02-26T00:14:59.132Z,4.47
2023-02-26T00:18:07.663Z,4.20
2023-02-26T00:21:17.606Z,4.10
2023-02-26T00:24:20.282Z,3.90
2023-02-26T00:27:23.116Z,3.63
2023-02-26T00:30:26.248Z,3.20
2023-02-26T00:33:33.639Z,4.17
2023-02-26T00:36:46.161Z,4.20
2023-02-26T00:39:55.835Z,3.37
2023-02-26T00:42:58.994Z,3.30
2023-02-26T00:46:11.751Z,4.17
2023-02-26T00:49:24.174Z,4.10
2023-02-26T00:52:33.580Z,3.60
2023-02-26T00:55:36.379Z,3.07
2023-02-26T00:58:39.073Z,2.67
2023-02-26T01:01:45.242Z,2.23
2023-02-26T01:04:50.028Z,2.70
2023-02-26T01:07:59.163Z,2.43
2023-02-26T01:11:02.291Z,2.70
2023-02-26T01:14:06.302Z,2.60
2023-02-26T01:17:23.109Z,2.60
2023-02-26T01:20:31.871Z,2.57
2023-02-26T01:23:42.335Z,2.80
2023-02-26T01:26:45.524Z,2.60
2023-02-26T01:29:48.731Z,2.70
2023-02-26T01:32:59.922Z,2.63
2023-02-26T01:36:10.257Z,2.60
2023-02-26T01:39:22.939Z,2.40
2023-02-26T01:42:28.373Z,2.40
2023-02-26T01:45:34.474Z,2.27
2023-02-26T01:48:45.544Z,2.60
2023-02-26T01:51:53.412Z,2.47
2023-02-26T01:54:56.199Z,2.60
2023-02-26T01:58:03.849Z,2.50
2023-02-26T02:01:09.243Z,2.90
2023-02-26T02:04:15.911Z,3.10
2023-02-26T02:07:20.701Z,4.10
2023-02-26T02:10:23.554Z,3.27
2023-02-26T02:13:38.465Z,2.53
2023-02-26T02:16:48.336Z,2.80
2023-02-26T02:20:26.187Z,2.63
2023-02-26T02:23:34.513Z,2.47
2023-02-26T02:26:49.603Z,3.23
2023-02-26T02:30:17.060Z,3.23
2023-02-26T02:33:29.789Z,3.00
2023-02-26T02:36:37.543Z,3.57
2023-02-26T02:39:47.119Z,3.67
2023-02-26T02:42:59.139Z,4.43
2023-02-26T02:46:11.325Z,3.40
2023-02-26T02:49:22.968Z,3.00
2023-02-26T02:52:40.830Z,2.77
2023-02-26T02:55:52.160Z,3.07
2023-02-26T02:59:01.775Z,3.73
2023-02-26T03:02:11.349Z,3.37
2023-02-26T03:05:16.747Z,3.37
2023-02-26T03:08:23.494Z,3.03
2023-02-26T03:11:32.658Z,2.90
2023-02-26T03:14:37.730Z,2.87
2023-02-26T03:17:51.190Z,3.03
2023-02-26T03:21:07.829Z,3.00
2023-02-26T03:24:16.144Z,3.00
2023-02-26T03:27:24.212Z,2.67
2023-02-26T03:30:37.096Z,2.93
2023-02-26T03:33:47.302Z,2.80
2023-02-26T03:36:57.729Z,3.13
2023-02-26T03:40:05.688Z,3.13
2023-02-26T03:43:13.702Z,2.40
2023-02-26T03:46:30.762Z,3.07
2023-02-26T03:49:37.717Z,3.10
2023-02-26T03:52:48.238Z,3.20
2023-02-26T03:55:55.088Z,2.97
2023-02-26T03:58:58.375Z,3.00
2023-02-26T04:02:04.850Z,2.80
2023-02-26T04:05:12.287Z,3.00
2023-02-26T04:08:19.188Z,3.20
2023-02-26T04:11:25.743Z,2.80
2023-02-26T04:14:28.448Z,3.10
2023-02-26T04:17:34.173Z,2.87
2023-02-26T04:20:39.135Z,2.83
2023-02-26T04:23:43.228Z,2.70
2023-02-26T04:26:46.617Z,2.87
2023-02-26T04:29:52.405Z,2.87
2023-02-26T04:32:55.811Z,2.80
2023-02-26T04:36:08.365Z,3.23
2023-02-26T04:39:20.466Z,3.00
2023-02-26T04:42:23.231Z,2.80
2023-02-26T04:45:25.959Z,3.07
2023-02-26T04:48:29.287Z,2.93
2023-02-26T04:51:32.430Z,3.40
2023-02-26T04:54:36.508Z,3.13
2023-02-26T04:57:39.260Z,2.80
2023-02-26T05:00:42.454Z,2.93
2023-02-26T05:03:45.768Z,2.73
2023-02-26T05:06:50.859Z,2.73
2023-02-26T05:09:57.494Z,2.77
2023-02-26T05:13:00.185Z,2.63
2023-02-26T05:16:03.577Z,2.63
2023-02-26T05:19:06.348Z,3.00
2023-02-26T05:22:09.142Z,2.73
2023-02-26T05:25:15.917Z,2.30
2023-02-26T05:28:18.752Z,2.93
2023-02-26T05:31:21.509Z,2.40
2023-02-26T05:34:24.250Z,2.63
2023-02-26T05:37:26.949Z,2.43
2023-02-26T05:40:34.081Z,2.13
2023-02-26T05:43:37.063Z,2.93
2023-02-26T05:46:39.790Z,3.30
2023-02-26T05:49:43.336Z,2.87
2023-02-26T05:52:48.233Z,3.40
2023-02-26T05:55:54.002Z,3.17
2023-02-26T05:58:56.667Z,3.10
2023-02-26T06:01:59.530Z,3.00
2023-02-26T06:05:04.376Z,2.50
2023-02-26T06:08:07.626Z,2.60
2023-02-26T06:11:12.619Z,2.60
2023-02-26T06:14:15.437Z,2.70
2023-02-26T06:17:18.426Z,2.93
2023-02-26T06:20:21.279Z,2.87
2023-02-26T06:23:24.005Z,3.60
2023-02-26T06:26:29.036Z,4.40
2023-02-26T06:29:32.092Z,4.47
2023-02-26T06:32:34.934Z,4.20
2023-02-26T06:35:38.060Z,4.67
2023-02-26T06:38:42.302Z,4.30
2023-02-26T06:41:46.397Z,3.40
2023-02-26T06:44:49.088Z,3.70
2023-02-26T06:47:52.031Z,3.43
2023-02-26T06:50:54.729Z,2.70
2023-02-26T06:53:57.575Z,2.87
2023-02-26T06:57:03.200Z,2.90
2023-02-26T07:00:07.975Z,2.57
2023-02-26T07:03:13.073Z,4.07
2023-02-26T07:06:27.421Z,4.20
2023-02-26T07:09:30.727Z,4.70
2023-02-26T07:12:34.952Z,4.07
2023-02-26T07:15:37.705Z,5.77
2023-02-26T07:18:40.558Z,4.40
2023-02-26T07:21:43.220Z,2.93
2023-02-26T07:24:46.290Z,2.10
2023-02-26T07:27:50.309Z,2.03
2023-02-26T07:30:55.191Z,2.40
2023-02-26T07:33:59.409Z,2.03
2023-02-26T07:37:08.242Z,2.43
2023-02-26T07:40:13.799Z,2.00
2023-02-26T07:43:18.781Z,2.03
2023-02-26T07:46:21.562Z,2.20
2023-02-26T07:49:25.256Z,1.97
2023-02-26T07:52:28.713Z,2.20
2023-02-26T07:55:33.656Z,2.00
2023-02-26T07:58:39.775Z,1.73
2023-02-26T08:01:42.463Z,2.40
2023-02-26T08:04:45.238Z,2.10
2023-02-26T08:07:47.940Z,1.93
2023-02-26T08:10:51.348Z,1.90
2023-02-26T08:13:55.416Z,2.00
2023-02-26T08:16:58.096Z,4.47
2023-02-26T08:20:00.785Z,2.67
2023-02-26T08:23:03.666Z,2.20
2023-02-26T08:26:10.155Z,2.40
2023-02-26T08:29:14.853Z,2.40
2023-02-26T08:32:28.204Z,2.50
2023-02-26T08:35:31.031Z,2.90
2023-02-26T08:38:33.800Z,3.77
2023-02-26T08:41:36.658Z,2.63
2023-02-26T08:44:40.706Z,2.23
2023-02-26T08:47:55.575Z,2.13
2023-02-26T08:50:59.685Z,2.23
2023-02-26T08:54:02.493Z,2.93
2023-02-26T08:57:05.338Z,3.50
2023-02-26T09:00:12.667Z,3.33
2023-02-26T09:03:15.590Z,1.70
2023-02-26T09:06:18.273Z,2.53
2023-02-26T09:09:20.965Z,2.20
2023-02-26T09:12:23.801Z,2.40
2023-02-26T09:15:28.010Z,2.37
2023-02-26T09:18:34.138Z,2.50
2023-02-26T09:21:37.032Z,2.83
2023-02-26T09:24:39.704Z,2.63
2023-02-26T09:27:42.452Z,3.03
2023-02-26T09:30:46.575Z,2.93
2023-02-26T09:33:49.266Z,3.10
2023-02-26T09:36:51.988Z,3.00
2023-02-26T09:39:55.036Z,3.20
2023-02-26T09:43:15.742Z,3.10
2023-02-26T09:46:33.627Z,4.33
2023-02-26T09:49:48.712Z,4.33
2023-02-26T09:52:57.888Z,6.53
2023-02-26T09:56:05.692Z,9.93
2023-02-26T09:59:10.316Z,3.60
2023-02-26T10:02:22.959Z,1.20
2023-02-26T10:05:36.084Z,1.80
2023-02-26T10:08:46.196Z,3.33
2023-02-26T10:11:57.261Z,3.37
2023-02-26T10:15:03.885Z,2.10
2023-02-26T10:18:14.082Z,2.30
2023-02-26T10:21:24.287Z,2.03
2023-02-26T10:24:34.566Z,6.37
2023-02-26T10:27:50.020Z,6.30
2023-02-26T10:30:57.244Z,0.60
2023-02-26T10:34:12.711Z,1.10
2023-02-26T10:37:20.644Z,2.13
2023-02-26T10:40:28.988Z,1.53
2023-02-26T10:43:36.585Z,3.03
2023-02-26T10:46:50.587Z,0.70
2023-02-26T10:49:57.525Z,0.60
2023-02-26T10:53:00.677Z,4.77
2023-02-26T10:56:08.241Z,0.67
2023-02-26T10:59:10.964Z,1.10
2023-02-26T11:02:34.023Z,1.43
2023-02-26T11:05:38.759Z,1.50
2023-02-26T11:08:45.370Z,1.80
2023-02-26T11:11:49.780Z,0.90
2023-02-26T11:14:53.834Z,1.23
2023-02-26T11:17:59.401Z,0.80
2023-02-26T11:21:06.957Z,0.70
2023-02-26T11:24:14.258Z,0.60
2023-02-26T11:27:20.379Z,0.60
2023-02-26T11:30:27.761Z,0.73
2023-02-26T11:33:37.753Z,1.50
2023-02-26T11:36:45.662Z,0.53
2023-02-26T11:39:51.758Z,1.53
2023-02-26T11:42:58.366Z,0.50
2023-02-26T11:46:03.516Z,0.40
2023-02-26T11:49:06.652Z,0.67
2023-02-26T11:52:22.601Z,1.20
2023-02-26T11:55:31.018Z,1.07
2023-02-26T11:58:38.971Z,2.80
2023-02-26T12:01:43.072Z,1.13
2023-02-26T12:04:49.394Z,0.90
2023-02-26T12:07:53.425Z,0.83
2023-02-26T12:11:10.161Z,1.60
2023-02-26T12:14:28.529Z,0.87
2023-02-26T12:17:56.403Z,0.53
2023-02-26T12:21:11.985Z,0.53
2023-02-26T12:24:36.153Z,0.60
2023-02-26T12:28:05.920Z,0.67
2023-02-26T12:31:24.591Z,0.70
2023-02-26T12:34:54.024Z,0.90
2023-02-26T12:38:08.416Z,0.77
2023-02-26T12:41:47.788Z,1.80
2023-02-26T12:45:21.323Z,0.90
2023-02-26T12:48:59.362Z,0.80
2023-02-26T12:52:20.916Z,0.97
2023-02-26T12:55:34.836Z,0.30
2023-02-26T12:59:00.025Z,0.67
2023-02-26T13:02:34.108Z,0.40
2023-02-26T13:05:49.488Z,0.40
2023-02-26T13:09:03.289Z,0.27
2023-02-26T13:12:21.371Z,0.67
2023-02-26T13:15:48.079Z,0.60
2023-02-26T13:19:00.393Z,0.80
2023-02-26T13:22:13.541Z,0.60
2023-02-26T13:25:24.748Z,0.70
2023-02-26T13:28:39.389Z,0.50
2023-02-26T13:31:47.062Z,0.60
2023-02-26T13:34:56.421Z,1.00
2023-02-26T13:38:02.837Z,0.93
2023-02-26T13:41:12.944Z,1.60
2023-02-26T13:44:33.780Z,0.57
2023-02-26T13:47:53.686Z,0.43
2023-02-26T13:51:05.759Z,1.13
2023-02-26T13:54:10.866Z,1.10
2023-02-26T13:57:36.164Z,2.77
2023-02-26T14:00:48.176Z,1.00
2023-02-26T14:03:54.684Z,0.93
2023-02-26T14:06:59.290Z,1.17
2023-02-26T14:10:05.210Z,1.13
2023-02-26T14:13:14.327Z,1.60
2023-02-26T14:16:23.658Z,0.93
2023-02-26T14:19:34.536Z,2.57
2023-02-26T14:22:41.748Z,1.30
2023-02-26T14:25:49.208Z,0.40
2023-02-26T14:28:58.026Z,2.57
2023-02-26T14:32:15.262Z,0.67
2023-02-26T14:35:23.376Z,0.80
2023-02-26T14:38:32.769Z,0.53
2023-02-26T14:41:40.585Z,0.87
2023-02-26T14:44:46.257Z,0.97
2023-02-26T14:47:50.644Z,0.77
2023-02-26T14:51:20.231Z,1.10
2023-02-26T14:54:37.840Z,1.00
2023-02-26T14:57:52.093Z,1.40
2023-02-26T15:01:15.926Z,1.80
2023-02-26T15:04:39.077Z,2.60
2023-02-26T15:08:00.020Z,1.03
2023-02-26T15:11:21.320Z,0.90
2023-02-26T15:14:49.170Z,0.67
2023-02-26T15:18:03.163Z,0.73
2023-02-26T15:21:15.184Z,0.90
2023-02-26T15:24:20.148Z,0.80
2023-02-26T15:27:23.129Z,0.93
2023-02-26T15:30:28.946Z,0.50
2023-02-26T15:33:35.525Z,0.80
2023-02-26T15:36:38.208Z,0.60
2023-02-26T15:39:42.978Z,1.00
2023-02-26T15:42:49.883Z,0.50
2023-02-26T15:45:55.223Z,0.90
2023-02-26T15:49:03.191Z,1.00
2023-02-26T15:52:08.919Z,0.63
2023-02-26T15:55:18.544Z,0.70
2023-02-26T15:58:24.341Z,0.43
2023-02-26T16:01:30.087Z,1.23
2023-02-26T16:04:39.197Z,1.43
2023-02-26T16:07:42.227Z,0.40
2023-02-26T16:10:46.420Z,1.20
2023-02-26T16:13:52.224Z,2.43
2023-02-26T16:16:57.577Z,1.40
2023-02-26T16:20:04.213Z,1.80
2023-02-26T16:23:12.029Z,2.23
2023-02-26T16:26:21.913Z,1.90
2023-02-26T16:29:26.427Z,0.67
2023-02-26T16:32:34.845Z,0.70
2023-02-26T16:35:40.344Z,0.70
2023-02-26T16:38:49.848Z,1.47
2023-02-26T16:42:09.701Z,1.53
2023-02-26T16:45:23.446Z,1.60
2023-02-26T16:48:28.944Z,1.80
2023-02-26T16:51:35.378Z,1.10
2023-02-26T16:54:41.760Z,1.10
2023-02-26T16:57:50.370Z,1.80
2023-02-26T17:00:58.151Z,4.30
2023-02-26T17:04:03.862Z,2.47
2023-02-26T17:07:15.776Z,2.00
2023-02-26T17:10:23.504Z,1.60
2023-02-26T17:13:29.673Z,2.60
2023-02-26T17:16:32.490Z,1.30
2023-02-26T17:19:35.378Z,0.90
2023-02-26T17:22:38.328Z,0.80
2023-02-26T17:25:44.245Z,2.43
2023-02-26T17:28:50.760Z,0.90
2023-02-26T17:31:53.658Z,1.87
2023-02-26T17:34:56.340Z,0.93
2023-02-26T17:38:00.590Z,1.07
2023-02-26T17:41:03.883Z,4.10
2023-02-26T17:44:08.042Z,8.03
2023-02-26T17:47:17.139Z,1.63
2023-02-26T17:50:27.345Z,1.30
2023-02-26T17:53:33.924Z,3.00
2023-02-26T17:56:37.570Z,1.80
2023-02-26T17:59:41.777Z,3.20
2023-02-26T18:02:46.069Z,3.13
2023-02-26T18:05:52.990Z,2.40
2023-02-26T18:08:55.746Z,2.77
2023-02-26T18:12:10.780Z,5.47
2023-02-26T18:15:15.680Z,4.20
2023-02-26T18:18:22.734Z,3.40
2023-02-26T18:21:26.208Z,3.20
2023-02-26T18:24:32.336Z,4.50
2023-02-26T18:27:35.032Z,3.53
2023-02-26T18:30:40.541Z,4.77
2023-02-26T18:33:44.540Z,2.43
2023-02-26T18:36:49.268Z,2.57
2023-02-26T18:39:52.887Z,4.67
2023-02-26T18:42:55.719Z,2.13
2023-02-26T18:46:09.575Z,5.87
2023-02-26T18:49:17.891Z,7.30
2023-02-26T18:52:20.683Z,8.30
2023-02-26T18:55:26.378Z,4.90
2023-02-26T18:58:31.317Z,5.07
2023-02-26T19:01:35.450Z,6.43
2023-02-26T19:04:38.611Z,13.27
2023-02-26T19:07:42.753Z,9.13
2023-02-26T19:10:45.415Z,32.63
2023-02-26T19:13:50.240Z,12.33
2023-02-26T19:16:54.886Z,8.00
2023-02-26T19:19:58.170Z,6.57
2023-02-26T19:23:00.960Z,11.13
2023-02-26T19:26:03.861Z,11.33
2023-02-26T19:29:08.724Z,7.40
2023-02-26T19:32:19.741Z,5.93
2023-02-26T19:35:27.088Z,3.30
2023-02-26T19:38:29.922Z,7.37
2023-02-26T19:41:33.752Z,5.00
2023-02-26T19:44:36.780Z,5.57
2023-02-26T19:47:40.573Z,5.40
2023-02-26T19:50:44.788Z,5.13
2023-02-26T19:53:47.581Z,3.00
2023-02-26T19:56:50.492Z,4.80
2023-02-26T19:59:53.226Z,3.80
2023-02-26T20:02:56.568Z,2.47
2023-02-26T20:06:00.902Z,2.30
2023-02-26T20:09:07.163Z,3.57
2023-02-26T20:12:10.133Z,5.97
2023-02-26T20:15:13.402Z,4.40
2023-02-26T20:18:16.549Z,2.33
2023-02-26T20:21:21.929Z,5.83
2023-02-26T20:24:24.725Z,8.40
2023-02-26T20:31:20.804Z,2.03
2023-02-26T20:34:23.698Z,2.17
2023-02-26T20:37:27.755Z,4.60
2023-02-26T20:40:48.828Z,2.60
2023-02-26T20:43:51.518Z,4.40
2023-02-26T20:46:55.848Z,2.47
2023-02-26T20:49:58.778Z,2.60
2023-02-26T20:53:03.392Z,3.53
2023-02-26T20:56:07.037Z,3.37
2023-02-26T20:59:10.226Z,2.50
2023-02-26T21:02:14.038Z,2.97
2023-02-26T21:05:17.397Z,1.93
2023-02-26T21:08:21.756Z,3.13
2023-02-26T21:11:24.794Z,2.07
2023-02-26T21:14:28.547Z,2.80
2023-02-26T21:17:31.961Z,4.57
2023-02-26T21:20:35.877Z,3.70
2023-02-26T21:23:40.036Z,3.97
2023-02-26T21:26:42.769Z,4.13
2023-02-26T21:29:47.670Z,2.80
2023-02-26T21:32:50.772Z,2.63
2023-02-26T21:35:53.876Z,2.70
2023-02-26T21:39:00.801Z,2.90
2023-02-26T21:42:04.370Z,4.43
2023-02-26T21:45:10.407Z,3.97
2023-02-26T21:48:13.104Z,3.37
2023-02-26T21:51:15.929Z,4.70
2023-02-26T21:54:20.024Z,4.13
2023-02-26T21:57:22.772Z,4.70
2023-02-26T22:00:26.173Z,5.80
2023-02-26T22:03:29.201Z,5.00
2023-02-26T22:06:32.073Z,3.30
2023-02-26T22:09:36.277Z,3.00
2023-02-26T22:12:39.153Z,2.30
2023-02-26T22:15:42.554Z,1.60
2023-02-26T22:18:48.103Z,1.63
2023-02-26T22:21:50.813Z,2.10
2023-02-26T22:24:54.900Z,2.70
2023-02-26T22:27:57.756Z,3.60
2023-02-26T22:31:10.942Z,2.50
2023-02-26T22:34:13.841Z,2.10
2023-02-26T22:37:16.591Z,2.57
2023-02-26T22:40:20.983Z,1.70
2023-02-26T22:43:23.769Z,1.97
2023-02-26T22:46:28.663Z,3.03
2023-02-26T22:49:31.447Z,3.40
2023-02-26T22:52:34.127Z,4.83
2023-02-26T22:55:38.299Z,2.47
2023-02-26T22:58:41.041Z,2.40
2023-02-26T23:01:43.922Z,2.93
2023-02-26T23:04:46.710Z,1.93
2023-02-26T23:07:49.847Z,2.83
2023-02-26T23:10:56.469Z,2.53
2023-02-26T23:13:59.288Z,1.90
2023-02-26T23:17:02.316Z,2.50
2023-02-26T23:20:12.336Z,2.00
2023-02-26T23:23:15.262Z,1.70
2023-02-26T23:26:22.101Z,2.20
2023-02-26T23:29:25.338Z,3.10
2023-02-26T23:32:28.190Z,2.63
2023-02-26T23:35:31.352Z,3.40
2023-02-26T23:38:34.093Z,3.07
2023-02-26T23:41:38.143Z,3.40
2023-02-26T23:44:40.805Z,2.80
2023-02-26T23:47:43.501Z,2.70
2023-02-26T23:50:49.850Z,2.77
2023-02-26T23:53:52.562Z,4.03
2023-02-26T23:56:56.605Z,2.93
